Terminal Aerodrome Forecast
Issued by NWS

Current Version | Previous Version | Graphics & Text | Print | Product List | Glossary On
Versions: 1 2 3 4 5 6 7 8 9 10 11 12 13 14 15 16 17 18 19
000
FTUS41 KILN 270800 AAA
TAFLCK
TAF AMD
KLCK 270848Z 2709/2806 27003KT P6SM SCT025
     FM270930 28003KT P6SM OVC025
      TEMPO 2710/2711 -SN OVC015
     FM271200 30005KT P6SM SCT025 BKN035
     FM280000 33002KT P6SM FEW035 SCT200=

USA.gov is the U.S. government's official web portal to all federal, state and local government web resources and services.